Time;durP1;ratioP1;P1;durP2;ratioP2;P2;SDS_P1;SDS_P2;PMS_P1;PMS_P2;Temp;Humidity;BMP_temperature;BMP_pressure;BME280_temperature;BME280_humidity;BME280_pressure;Samples;Min_cycle;Max_cycle;Signal;HPM_P1;HPM_P2
2023/08/17 00:02:13;;;;;;;5.43;1.60;;;;;;;18.74;68.16;102254.16;7389262;19;20018;-58
2023/08/17 00:04:40;;;;;;;6.95;1.55;;;;;;;18.68;67.92;102251.94;7388359;19;20073;-58
2023/08/17 00:07:08;;;;;;;5.68;1.83;;;;;;;18.67;68.10;102250.25;7388848;19;20033;-58
2023/08/17 00:09:35;;;;;;;5.93;1.60;;;;;;;18.69;67.85;102247.44;7388699;19;20036;-58
2023/08/17 00:12:03;;;;;;;5.32;1.63;;;;;;;18.67;68.00;102246.72;7389798;19;20014;-58
2023/08/17 00:14:32;;;;;;;8.50;1.90;;;;;;;18.65;68.10;102248.66;7389581;19;20014;-58
2023/08/17 00:16:59;;;;;;;5.78;1.60;;;;;;;18.63;68.06;102240.75;7388845;19;20502;-58
2023/08/17 00:19:26;;;;;;;6.13;1.77;;;;;;;18.63;68.07;102237.22;7391850;19;20019;-59
2023/08/17 00:21:55;;;;;;;4.65;1.40;;;;;;;18.62;68.09;102239.06;7390134;19;20086;-58
2023/08/17 00:24:22;;;;;;;5.68;1.60;;;;;;;18.64;68.13;102237.09;7388651;19;20032;-58
2023/08/17 00:26:49;;;;;;;9.30;1.88;;;;;;;18.61;68.15;102241.88;7387793;19;20528;-59
2023/08/17 00:29:17;;;;;;;6.00;1.70;;;;;;;18.58;68.28;102239.44;7388448;19;20039;-57
2023/08/17 00:31:44;;;;;;;7.68;1.60;;;;;;;18.61;68.20;102241.88;7389596;19;20022;-58
2023/08/17 00:34:12;;;;;;;6.90;1.80;;;;;;;18.59;68.15;102233.09;7389845;19;20045;-59
2023/08/17 00:36:39;;;;;;;8.20;1.90;;;;;;;18.64;68.14;102233.56;7388273;19;20022;-58
2023/08/17 00:39:06;;;;;;;5.65;1.60;;;;;;;18.65;68.30;102230.72;7390299;19;20086;-58
2023/08/17 00:41:34;;;;;;;6.43;1.60;;;;;;;18.69;68.26;102231.31;7389042;19;20018;-58
2023/08/17 00:44:01;;;;;;;7.93;1.67;;;;;;;18.61;68.06;102231.97;7388917;19;20031;-59
2023/08/17 00:46:30;;;;;;;5.63;1.42;;;;;;;18.64;68.13;102228.19;7389044;19;20022;-58
2023/08/17 00:48:58;;;;;;;5.72;1.98;;;;;;;18.55;68.38;102229.81;7396427;19;20015;-58
2023/08/17 00:51:27;;;;;;;7.30;1.48;;;;;;;18.50;68.15;102222.13;7396249;19;20018;-59
2023/08/17 00:53:58;;;;;;;5.55;1.63;;;;;;;18.50;68.36;102229.34;7395913;19;20023;-58
2023/08/17 00:56:29;;;;;;;6.15;1.70;;;;;;;18.50;68.42;102221.28;7395582;19;20049;-58
2023/08/17 00:58:57;;;;;;;5.25;2.05;;;;;;;18.52;68.42;102220.19;7396179;19;20022;-58
2023/08/17 01:01:24;;;;;;;6.30;1.80;;;;;;;18.51;68.54;102217.66;7396144;19;20019;-58
2023/08/17 01:03:52;;;;;;;6.00;1.73;;;;;;;18.48;68.38;102210.69;7393125;19;20019;-58
2023/08/17 01:06:19;;;;;;;7.85;1.65;;;;;;;18.40;68.81;102210.50;7394424;19;20027;-58
2023/08/17 01:08:47;;;;;;;6.55;1.80;;;;;;;18.46;68.55;102209.13;7396857;19;20022;-58
2023/08/17 01:11:24;;;;;;;6.88;1.45;;;;;;;18.54;68.63;102203.94;7396687;19;20428;-57
2023/08/17 01:14:05;;;;;;;5.50;1.80;;;;;;;18.55;68.24;102207.50;7396950;19;20026;-57
2023/08/17 01:16:46;;;;;;;5.57;1.70;;;;;;;18.53;68.55;102196.88;7393456;19;20381;-58
2023/08/17 01:19:24;;;;;;;5.38;1.40;;;;;;;18.61;68.29;102197.09;7396079;19;20035;-58
2023/08/17 01:21:56;;;;;;;4.82;1.63;;;;;;;18.56;68.48;102196.63;7394792;19;20043;-57
2023/08/17 01:24:24;;;;;;;7.80;1.60;;;;;;;18.49;68.51;102200.81;7395403;19;20019;-58
2023/08/17 01:26:51;;;;;;;9.27;1.63;;;;;;;18.45;68.92;102192.16;7394037;19;20015;-58
2023/08/17 01:29:19;;;;;;;8.05;2.20;;;;;;;18.51;68.51;102199.72;7395852;19;20029;-57
2023/08/17 01:31:50;;;;;;;6.75;2.10;;;;;;;18.45;68.55;102199.38;7393554;19;20015;-57
2023/08/17 01:34:20;;;;;;;5.50;1.65;;;;;;;18.45;68.89;102204.75;7392132;19;20046;-57
2023/08/17 01:36:53;;;;;;;6.18;1.70;;;;;;;18.51;68.71;102204.22;7392766;19;20051;-58
2023/08/17 01:39:26;;;;;;;4.13;1.50;;;;;;;18.45;68.87;102205.59;7395215;19;20118;-58
2023/08/17 01:41:56;;;;;;;7.28;2.00;;;;;;;18.41;68.83;102197.94;7392794;19;20492;-57
2023/08/17 01:44:25;;;;;;;4.07;1.67;;;;;;;18.43;68.80;102195.97;7392910;19;20025;-58
2023/08/17 01:46:53;;;;;;;7.88;1.67;;;;;;;18.40;68.97;102194.41;7393414;19;20484;-58
2023/08/17 01:49:21;;;;;;;5.80;1.75;;;;;;;18.40;68.76;102190.88;7394033;19;20506;-58
2023/08/17 01:51:48;;;;;;;5.63;1.58;;;;;;;18.40;69.36;102197.09;7398933;19;20018;-57
2023/08/17 01:54:15;;;;;;;10.73;2.03;;;;;;;18.39;69.25;102192.72;7394969;19;20093;-57
2023/08/17 01:56:43;;;;;;;4.07;1.70;;;;;;;18.41;69.11;102192.56;7393373;19;20019;-57
2023/08/17 01:59:10;;;;;;;5.13;1.60;;;;;;;18.36;69.48;102186.75;7392283;19;20138;-58
2023/08/17 02:01:38;;;;;;;6.28;1.55;;;;;;;18.31;69.61;102189.78;7394503;19;20014;-58
2023/08/17 02:04:06;;;;;;;6.82;1.52;;;;;;;18.31;69.79;102188.94;7392465;19;20047;-58
2023/08/17 02:06:33;;;;;;;6.97;1.75;;;;;;;18.29;69.64;102185.56;7391282;19;20025;-58
2023/08/17 02:09:00;;;;;;;4.28;1.38;;;;;;;18.33;69.23;102181.63;7394945;19;20018;-57
2023/08/17 02:11:28;;;;;;;5.97;1.70;;;;;;;18.36;69.49;102179.53;7393910;19;20018;-58
2023/08/17 02:13:56;;;;;;;7.05;1.52;;;;;;;18.37;69.74;102185.75;7394438;19;20488;-57
2023/08/17 02:16:23;;;;;;;6.85;1.70;;;;;;;18.33;69.55;102189.69;7392619;19;20029;-59
2023/08/17 02:18:50;;;;;;;5.88;1.70;;;;;;;18.28;69.52;102184.72;7394461;19;20006;-58
2023/08/17 02:21:18;;;;;;;5.38;1.80;;;;;;;18.22;69.70;102191.41;7393762;19;20019;-59
2023/08/17 02:23:45;;;;;;;5.80;1.60;;;;;;;18.30;69.64;102198.81;7393359;19;20018;-59
2023/08/17 02:26:13;;;;;;;4.20;1.58;;;;;;;18.31;69.88;102194.31;7394137;19;20019;-59
2023/08/17 02:28:40;;;;;;;6.30;1.70;;;;;;;18.37;69.75;102207.22;7393876;19;20047;-59
2023/08/17 02:31:07;;;;;;;4.53;1.40;;;;;;;18.34;69.39;102197.59;7392135;19;20039;-59
2023/08/17 02:33:36;;;;;;;4.68;1.48;;;;;;;18.35;69.79;102201.97;7393515;19;20014;-58
2023/08/17 02:36:04;;;;;;;7.18;2.00;;;;;;;18.41;69.66;102192.56;7392661;19;20026;-58
2023/08/17 02:38:32;;;;;;;8.45;2.10;;;;;;;18.40;69.45;102201.59;7394039;19;20040;-58
2023/08/17 02:40:59;;;;;;;6.28;1.55;;;;;;;18.36;69.58;102192.13;7393257;19;20010;-57
2023/08/17 02:43:26;;;;;;;5.20;1.70;;;;;;;18.38;69.86;102195.50;7393284;19;20049;-58
2023/08/17 02:45:54;;;;;;;5.15;1.67;;;;;;;18.37;69.89;102191.13;7390385;19;20014;-57
2023/08/17 02:48:21;;;;;;;7.63;1.90;;;;;;;18.34;70.01;102183.31;7389682;19;20018;-57
2023/08/17 02:50:49;;;;;;;6.32;1.80;;;;;;;18.28;69.98;102179.34;7390992;19;20022;-58
2023/08/17 02:53:16;;;;;;;5.70;2.05;;;;;;;18.25;70.28;102174.22;7396691;19;20039;-58
2023/08/17 02:55:44;;;;;;;5.95;1.60;;;;;;;18.22;70.49;102175.31;7390843;19;20026;-58
2023/08/17 02:58:11;;;;;;;5.93;1.52;;;;;;;18.25;70.30;102171.53;7389588;19;20023;-58
2023/08/17 03:00:38;;;;;;;5.93;1.73;;;;;;;18.24;70.49;102173.38;7391159;19;20035;-58
2023/08/17 03:03:06;;;;;;;6.63;1.70;;;;;;;18.23;70.34;102163.59;7392152;19;20027;-58
2023/08/17 03:05:34;;;;;;;3.85;1.50;;;;;;;18.32;70.24;102171.91;7390528;19;20014;-58
2023/08/17 03:08:01;;;;;;;6.13;1.50;;;;;;;18.35;70.19;102166.25;7388858;19;20090;-57
2023/08/17 03:10:29;;;;;;;6.25;1.80;;;;;;;18.33;70.38;102165.53;7391523;19;20484;-58
2023/08/17 03:12:57;;;;;;;5.80;1.60;;;;;;;18.32;70.31;102169.22;7392811;19;20015;-58
2023/08/17 03:15:24;;;;;;;5.65;1.80;;;;;;;18.28;70.37;102160.56;7391481;19;20022;-57
2023/08/17 03:17:51;;;;;;;5.15;1.75;;;;;;;18.29;70.45;102164.94;7391221;19;20022;-57
2023/08/17 03:20:19;;;;;;;5.68;1.73;;;;;;;18.26;70.50;102166.03;7391960;19;20040;-58
2023/08/17 03:22:46;;;;;;;3.83;1.67;;;;;;;18.22;70.33;102164.59;7392919;19;20101;-57
2023/08/17 03:25:14;;;;;;;7.18;1.67;;;;;;;18.21;70.53;102160.22;7390492;19;20524;-57
2023/08/17 03:27:41;;;;;;;4.80;1.75;;;;;;;18.18;70.83;102163.16;7390514;19;20081;-57
2023/08/17 03:30:09;;;;;;;5.68;1.52;;;;;;;18.21;70.48;102149.50;7390266;19;20043;-58
2023/08/17 03:32:38;;;;;;;5.22;1.50;;;;;;;18.26;70.52;102162.50;7392060;19;20023;-58
2023/08/17 03:35:06;;;;;;;8.20;1.73;;;;;;;18.26;70.76;102163.34;7392059;19;20424;-58
2023/08/17 03:37:34;;;;;;;7.18;1.63;;;;;;;18.25;70.67;102160.81;7389516;19;20015;-58
2023/08/17 03:40:01;;;;;;;4.80;1.42;;;;;;;18.24;70.82;102151.94;7391561;19;20015;-58
2023/08/17 03:42:29;;;;;;;7.03;1.50;;;;;;;18.20;70.90;102152.28;7390588;19;20025;-58
2023/08/17 03:44:56;;;;;;;5.22;1.67;;;;;;;18.16;71.21;102146.34;7391036;19;20040;-58
2023/08/17 03:47:24;;;;;;;5.72;1.90;;;;;;;18.23;71.03;102162.75;7389915;19;20026;-58
2023/08/17 03:49:52;;;;;;;7.05;1.50;;;;;;;18.19;71.53;102155.97;7391770;19;20018;-57
2023/08/17 03:52:19;;;;;;;7.97;1.70;;;;;;;18.09;71.80;102147.84;7390452;19;20022;-60
2023/08/17 03:54:46;;;;;;;6.53;1.48;;;;;;;18.12;72.09;102158.28;7391471;19;20035;-59
2023/08/17 03:57:14;;;;;;;5.80;1.70;;;;;;;18.12;72.46;102163.66;7391218;19;20023;-61
2023/08/17 03:59:41;;;;;;;5.18;1.40;;;;;;;18.18;72.41;102167.66;7391044;19;20511;-62
2023/08/17 04:02:09;;;;;;;6.50;1.70;;;;;;;18.18;72.32;102165.84;7390460;19;20018;-62
2023/08/17 04:04:36;;;;;;;5.55;1.75;;;;;;;18.11;72.52;102156.59;7391147;19;20018;-62
2023/08/17 04:07:03;;;;;;;6.75;1.77;;;;;;;18.09;72.58;102166.63;7390816;19;20018;-60
2023/08/17 04:09:34;;;;;;;6.53;1.73;;;;;;;18.03;72.86;102162.59;7388859;19;20409;-60
2023/08/17 04:12:03;;;;;;;5.45;1.50;;;;;;;18.01;73.22;102169.94;7390654;19;20019;-60
2023/08/17 04:14:31;;;;;;;6.13;1.92;;;;;;;18.00;73.42;102162.84;7391266;19;20090;-58
2023/08/17 04:16:58;;;;;;;6.95;1.70;;;;;;;18.01;73.40;102163.72;7390094;19;20025;-59
2023/08/17 04:19:26;;;;;;;6.82;1.83;;;;;;;18.03;72.93;102164.44;7390637;19;20047;-60
2023/08/17 04:21:53;;;;;;;5.00;1.95;;;;;;;18.06;73.14;102168.69;7391001;19;20015;-59
2023/08/17 04:24:20;;;;;;;7.68;1.92;;;;;;;18.01;73.02;102169.94;7398476;19;20511;-59
2023/08/17 04:26:47;;;;;;;5.72;1.90;;;;;;;17.99;73.13;102163.84;7397227;19;20484;-59
2023/08/17 04:29:15;;;;;;;4.47;1.63;;;;;;;17.98;73.24;102172.84;7398567;19;20487;-59
2023/08/17 04:31:42;;;;;;;5.03;1.70;;;;;;;17.99;73.41;102179.91;7396633;19;20019;-59
2023/08/17 04:34:10;;;;;;;4.72;1.90;;;;;;;17.99;73.68;102179.91;7396805;19;20018;-59
2023/08/17 04:36:37;;;;;;;6.03;1.80;;;;;;;17.98;73.57;102166.66;7396974;19;20035;-59
2023/08/17 04:39:04;;;;;;;5.43;1.65;;;;;;;18.00;73.54;102170.03;7398208;19;20038;-58
2023/08/17 04:41:32;;;;;;;5.07;1.90;;;;;;;18.00;73.83;102170.88;7396780;19;20382;-57
2023/08/17 04:43:59;;;;;;;5.60;1.70;;;;;;;18.02;73.66;102166.25;7397440;19;20512;-59
2023/08/17 04:46:26;;;;;;;6.05;1.92;;;;;;;17.99;73.65;102173.72;7394500;19;20087;-58
2023/08/17 04:48:54;;;;;;;6.63;2.03;;;;;;;18.00;73.72;102165.53;7397252;19;20038;-59
2023/08/17 04:51:21;;;;;;;3.97;1.90;;;;;;;17.98;73.69;102163.97;7394955;19;20023;-59
2023/08/17 04:53:49;;;;;;;4.90;1.77;;;;;;;18.01;73.59;102156.53;7402026;19;20026;-60
2023/08/17 04:56:16;;;;;;;5.72;1.60;;;;;;;18.00;73.82;102170.88;7397050;19;20082;-60
2023/08/17 04:58:43;;;;;;;5.57;1.70;;;;;;;18.01;73.56;102172.63;7396650;19;20018;-60
2023/08/17 05:01:11;;;;;;;5.90;1.77;;;;;;;17.91;74.08;102170.81;7397315;19;20039;-58
2023/08/17 05:03:38;;;;;;;4.63;2.08;;;;;;;17.87;74.32;102166.69;7397272;19;20016;-61
2023/08/17 05:06:05;;;;;;;5.90;1.80;;;;;;;17.88;74.38;102163.00;7394598;19;20018;-61
2023/08/17 05:08:33;;;;;;;5.45;1.90;;;;;;;17.84;74.39;102159.72;7397025;19;20014;-64
2023/08/17 05:11:00;;;;;;;5.65;2.15;;;;;;;17.86;74.46;102164.94;7395759;19;20170;-59
2023/08/17 05:13:28;;;;;;;7.82;1.60;;;;;;;17.87;74.62;102167.53;7394632;19;20025;-58
2023/08/17 05:15:55;;;;;;;5.57;2.03;;;;;;;17.87;74.45;102164.00;7395788;19;20015;-57
2023/08/17 05:18:22;;;;;;;6.05;2.10;;;;;;;17.87;74.48;102159.50;7395058;19;20022;-60
2023/08/17 05:20:50;;;;;;;6.03;2.05;;;;;;;17.82;74.64;102161.69;7394947;19;20067;-61
2023/08/17 05:23:17;;;;;;;5.88;2.13;;;;;;;17.93;74.87;102167.03;7396431;19;20011;-60
2023/08/17 05:25:48;;;;;;;6.82;2.05;;;;;;;17.97;74.34;102171.16;7392707;19;20086;-59
2023/08/17 05:28:15;;;;;;;5.85;2.00;;;;;;;17.94;74.49;102167.88;7395986;19;20043;-59
2023/08/17 05:30:43;;;;;;;5.20;1.90;;;;;;;17.92;74.57;102172.50;7395849;19;20059;-59
2023/08/17 05:33:10;;;;;;;6.93;1.98;;;;;;;17.98;74.63;102163.97;7396263;19;20043;-60
2023/08/17 05:35:38;;;;;;;6.72;2.00;;;;;;;18.02;74.60;102157.38;7395584;19;20018;-61
2023/08/17 05:38:05;;;;;;;3.88;1.80;;;;;;;18.03;74.15;102165.28;7395460;19;20095;-60
2023/08/17 05:40:33;;;;;;;5.88;1.77;;;;;;;18.10;74.31;102168.31;7396084;19;20094;-60
2023/08/17 05:43:00;;;;;;;5.05;1.88;;;;;;;18.07;74.04;102171.25;7395857;19;20031;-60
2023/08/17 05:45:29;;;;;;;5.80;1.95;;;;;;;18.10;74.37;102160.25;7394340;19;20102;-61
2023/08/17 05:47:56;;;;;;;6.18;2.10;;;;;;;18.15;74.48;102170.59;7395601;19;20022;-61
2023/08/17 05:50:23;;;;;;;5.43;2.22;;;;;;;18.19;74.41;102166.69;7395874;19;20368;-61
2023/08/17 05:52:52;;;;;;;5.05;2.10;;;;;;;18.25;74.13;102171.53;7395707;19;20010;-60
2023/08/17 05:55:19;;;;;;;6.90;2.13;;;;;;;18.22;74.53;102178.00;7395733;19;20022;-61
2023/08/17 05:57:46;;;;;;;5.70;2.35;;;;;;;18.26;74.06;102175.91;7394443;19;20090;-62
2023/08/17 06:00:15;;;;;;;6.70;2.03;;;;;;;18.32;74.24;102179.94;7395667;19;20018;-62
2023/08/17 06:02:43;;;;;;;6.00;2.22;;;;;;;18.33;74.32;102187.00;7392620;19;20015;-61
2023/08/17 06:05:10;;;;;;;6.20;2.28;;;;;;;18.36;74.17;102186.75;7395241;19;20041;-61
2023/08/17 06:07:38;;;;;;;4.30;2.13;;;;;;;18.37;74.18;102185.75;7395119;19;20023;-61
2023/08/17 06:10:06;;;;;;;5.45;2.08;;;;;;;18.39;74.28;102184.66;7394697;19;20018;-62
2023/08/17 06:12:33;;;;;;;6.07;1.80;;;;;;;18.39;74.04;102181.09;7392956;19;20014;-62
2023/08/17 06:15:04;;;;;;;4.22;2.10;;;;;;;18.38;74.30;102190.97;7392873;19;20023;-61
2023/08/17 06:17:32;;;;;;;6.63;2.58;;;;;;;18.35;74.76;102185.88;7392455;19;20022;-60
2023/08/17 06:19:59;;;;;;;4.93;2.05;;;;;;;18.40;74.87;102180.16;7393902;19;20022;-61
2023/08/17 06:22:26;;;;;;;6.43;2.60;;;;;;;18.45;74.27;102194.84;7392509;19;20026;-60
2023/08/17 06:24:54;;;;;;;6.93;2.00;;;;;;;18.47;74.05;102197.44;7393500;19;20039;-62
2023/08/17 06:27:21;;;;;;;6.25;2.28;;;;;;;18.50;74.51;102197.16;7389071;19;20043;-62
2023/08/17 06:29:49;;;;;;;5.10;1.92;;;;;;;18.51;74.57;102198.88;7393431;19;20022;-60
2023/08/17 06:32:16;;;;;;;6.40;2.05;;;;;;;18.56;74.46;102203.84;7392083;19;20018;-60
2023/08/17 06:34:43;;;;;;;3.90;1.70;;;;;;;18.62;74.48;102198.81;7393300;19;20043;-62
2023/08/17 06:37:11;;;;;;;4.97;1.92;;;;;;;18.65;74.02;102195.84;7392783;19;20059;-61
2023/08/17 06:39:38;;;;;;;5.22;2.20;;;;;;;18.59;74.10;102184.81;7391907;19;20022;-61
2023/08/17 06:42:05;;;;;;;6.50;2.42;;;;;;;18.60;74.36;102191.88;7391304;19;20450;-63
2023/08/17 06:44:33;;;;;;;7.90;2.28;;;;;;;18.61;74.10;102196.25;7392093;19;20043;-62
2023/08/17 06:47:00;;;;;;;6.93;1.75;;;;;;;18.57;74.55;102197.50;7391069;19;20015;-62
2023/08/17 06:49:28;;;;;;;6.57;2.13;;;;;;;18.56;74.35;102201.16;7392039;19;20117;-62
2023/08/17 06:51:56;;;;;;;4.88;2.33;;;;;;;18.56;74.32;102207.38;7392575;19;20031;-59
2023/08/17 06:54:23;;;;;;;5.88;2.17;;;;;;;18.63;74.44;102207.72;7392902;19;20014;-58
2023/08/17 06:56:51;;;;;;;5.57;2.13;;;;;;;18.58;74.56;102215.28;7392232;19;20047;-60
2023/08/17 06:59:18;;;;;;;6.28;2.30;;;;;;;18.56;74.70;102212.75;7391067;19;20023;-59
2023/08/17 07:01:45;;;;;;;5.85;2.35;;;;;;;18.56;74.66;102218.09;7390195;19;20018;-59
2023/08/17 07:04:13;;;;;;;5.65;2.28;;;;;;;18.58;74.68;102210.75;7392528;19;20025;-59
2023/08/17 07:06:41;;;;;;;5.55;2.35;;;;;;;18.60;74.57;102211.50;7389085;19;20595;-60
2023/08/17 07:09:08;;;;;;;6.72;2.17;;;;;;;18.65;74.72;102221.84;7390714;19;20011;-61
2023/08/17 07:11:35;;;;;;;5.53;2.30;;;;;;;18.66;74.64;102212.78;7391880;19;20026;-61
2023/08/17 07:14:03;;;;;;;6.88;2.35;;;;;;;18.69;74.30;102208.03;7392465;19;20110;-61
2023/08/17 07:16:30;;;;;;;6.30;2.20;;;;;;;18.66;74.28;102213.66;7390108;19;20043;-59
2023/08/17 07:18:58;;;;;;;6.88;2.10;;;;;;;18.63;74.51;102208.56;7391767;19;20501;-60
2023/08/17 07:21:25;;;;;;;6.35;2.38;;;;;;;18.60;74.92;102208.81;7391608;19;20039;-60
2023/08/17 07:23:54;;;;;;;4.82;2.30;;;;;;;18.60;74.35;102214.19;7392549;19;20022;-60
2023/08/17 07:26:22;;;;;;;5.45;2.20;;;;;;;18.63;74.86;102205.03;7390783;19;20022;-60
2023/08/17 07:28:50;;;;;;;5.75;2.10;;;;;;;18.60;74.48;102200.75;7392100;19;20018;-60
2023/08/17 07:31:17;;;;;;;6.05;2.22;;;;;;;18.65;74.55;102208.41;7391374;19;20056;-59
2023/08/17 07:33:45;;;;;;;5.72;2.33;;;;;;;18.65;74.16;102211.94;7391448;19;20082;-59
2023/08/17 07:36:12;;;;;;;7.32;2.50;;;;;;;18.61;74.54;102210.50;7390489;19;20049;-59
2023/08/17 07:38:39;;;;;;;4.88;2.00;;;;;;;18.61;74.66;102209.66;7390051;19;20035;-59
2023/08/17 07:41:07;;;;;;;5.63;2.00;;;;;;;18.71;74.21;102208.78;7391920;19;20023;-61
2023/08/17 07:43:34;;;;;;;5.45;2.15;;;;;;;18.82;73.84;102213.25;7391226;19;20018;-61
2023/08/17 07:46:01;;;;;;;6.25;2.20;;;;;;;19.01;73.04;102201.78;7390468;19;20015;-60
2023/08/17 07:48:33;;;;;;;4.72;2.20;;;;;;;19.11;72.67;102208.03;7391020;19;20022;-61
2023/08/17 07:51:00;;;;;;;4.72;1.85;;;;;;;19.29;72.64;102204.75;7390516;19;20035;-61
2023/08/17 07:53:28;;;;;;;6.20;1.90;;;;;;;19.46;71.92;102204.13;7395423;19;20022;-62
2023/08/17 07:55:56;;;;;;;8.70;2.05;;;;;;;19.64;71.36;102201.66;7389949;19;20022;-60
2023/08/17 07:58:24;;;;;;;3.78;1.70;;;;;;;19.71;70.91;102206.34;7390932;19;20026;-60
2023/08/17 08:00:52;;;;;;;4.40;1.70;;;;;;;19.75;70.47;102206.06;7390298;19;20014;-57
2023/08/17 08:03:19;;;;;;;3.10;1.55;;;;;;;19.74;70.24;102209.75;7390821;19;20014;-58
2023/08/17 08:05:46;;;;;;;3.80;1.50;;;;;;;19.76;69.09;102207.75;7390259;19;20014;-59
2023/08/17 08:08:14;;;;;;;4.28;1.40;;;;;;;19.77;69.09;102210.34;7390595;19;20018;-60
2023/08/17 08:10:42;;;;;;;3.78;1.45;;;;;;;19.71;69.26;102210.88;7390057;19;20022;-59
2023/08/17 08:13:09;;;;;;;4.05;1.40;;;;;;;19.68;69.04;102205.75;7390132;19;20018;-59
2023/08/17 08:15:39;;;;;;;5.07;1.70;;;;;;;19.68;69.01;102208.44;7388731;19;20067;-64
2023/08/17 08:18:06;;;;;;;4.15;1.48;;;;;;;19.66;69.62;102203.22;7389065;19;20047;-60
2023/08/17 08:20:33;;;;;;;6.15;1.40;;;;;;;19.60;69.61;102200.19;7390521;19;20023;-59
2023/08/17 08:23:02;;;;;;;2.42;1.40;;;;;;;19.53;70.10;102205.25;7390419;19;20365;-59
2023/08/17 08:25:29;;;;;;;4.57;1.42;;;;;;;19.62;69.99;102209.00;7389234;19;20011;-62
2023/08/17 08:27:57;;;;;;;3.97;1.50;;;;;;;19.54;70.44;102208.81;7386822;19;20042;-63
2023/08/17 08:30:24;;;;;;;3.28;1.30;;;;;;;19.59;70.67;102211.94;7388311;19;20023;-63
2023/08/17 08:32:51;;;;;;;3.17;1.38;;;;;;;19.62;70.56;102214.41;7387986;19;20019;-64
2023/08/17 08:35:19;;;;;;;4.32;1.60;;;;;;;19.54;70.81;102219.56;7389303;19;20018;-65
2023/08/17 08:37:46;;;;;;;5.90;1.70;;;;;;;19.46;71.20;102217.56;7389832;19;20049;-66
2023/08/17 08:40:16;;;;;;;3.97;1.52;;;;;;;19.45;71.71;102215.84;7389848;19;20015;-68
2023/08/17 08:42:44;;;;;;;3.35;1.60;;;;;;;19.36;71.76;102212.13;7387739;19;20509;-67
2023/08/17 08:45:11;;;;;;;4.00;1.70;;;;;;;19.39;71.41;102203.81;7390120;19;20018;-67
2023/08/17 08:47:41;;;;;;;3.53;1.52;;;;;;;19.28;71.02;102197.69;7387608;19;20018;-61
2023/08/17 08:50:16;;;;;;;4.05;1.50;;;;;;;19.23;71.04;102215.03;7389610;19;20112;-61
2023/08/17 08:52:50;;;;;;;2.95;1.50;;;;;;;19.20;71.08;102215.31;7388203;19;20014;-61
2023/08/17 08:55:18;;;;;;;4.20;1.60;;;;;;;19.26;70.99;102223.81;7389447;19;20067;-61
2023/08/17 08:57:47;;;;;;;5.13;1.73;;;;;;;19.26;71.08;102221.97;7388659;19;20019;-61
2023/08/17 09:00:18;;;;;;;3.95;1.45;;;;;;;19.29;71.23;102221.72;7389749;19;20022;-61
2023/08/17 09:02:46;;;;;;;2.85;1.52;;;;;;;19.26;71.79;102221.13;7387257;19;20022;-61
2023/08/17 09:05:14;;;;;;;5.65;1.40;;;;;;;19.23;71.58;102222.22;7389024;19;20023;-62
2023/08/17 09:07:43;;;;;;;2.38;1.30;;;;;;;19.15;71.56;102214.84;7388202;19;20037;-61
2023/08/17 09:10:10;;;;;;;5.25;1.40;;;;;;;19.14;70.67;102223.03;7395017;19;20082;-61
2023/08/17 09:12:39;;;;;;;6.13;1.33;;;;;;;19.14;70.85;102223.88;7394116;19;20019;-62
2023/08/17 09:15:09;;;;;;;2.80;1.17;;;;;;;19.14;70.66;102223.88;7395338;19;20022;-60
2023/08/17 09:17:36;;;;;;;2.63;1.15;;;;;;;19.19;70.46;102232.41;7395861;19;20583;-61
2023/08/17 09:20:07;;;;;;;3.40;1.23;;;;;;;19.16;70.30;102231.84;7396922;19;20074;-60
2023/08/17 09:22:40;;;;;;;4.07;1.55;;;;;;;19.22;70.06;102221.38;7392168;19;20026;-60
2023/08/17 09:25:11;;;;;;;2.13;1.20;;;;;;;19.30;69.04;102227.94;7396258;19;20021;-60
2023/08/17 09:27:39;;;;;;;3.28;1.20;;;;;;;19.31;67.83;102225.13;7393668;19;20276;-60
2023/08/17 09:30:09;;;;;;;3.33;1.13;;;;;;;19.33;67.18;102220.44;7396573;19;20051;-61
2023/08/17 09:32:36;;;;;;;4.15;1.30;;;;;;;19.27;66.87;102225.50;7393731;19;20356;-60
2023/08/17 09:35:05;;;;;;;1.70;1.02;;;;;;;19.13;67.45;102227.56;7395631;19;20018;-60
2023/08/17 09:37:33;;;;;;;3.25;1.42;;;;;;;19.02;67.59;102222.28;7394718;19;20039;-59
2023/08/17 09:40:00;;;;;;;4.00;1.40;;;;;;;18.99;67.92;102219.84;7395826;19;20082;-60
2023/08/17 09:42:28;;;;;;;2.63;1.40;;;;;;;18.98;67.57;102218.16;7393147;19;20014;-61
2023/08/17 09:44:57;;;;;;;3.80;1.30;;;;;;;19.07;67.63;102216.50;7393838;19;20014;-61
2023/08/17 09:47:25;;;;;;;3.92;1.30;;;;;;;19.15;67.84;102214.84;7393157;19;20460;-61
2023/08/17 09:49:53;;;;;;;5.82;1.50;;;;;;;19.27;67.66;102221.00;7394959;19;20014;-60
2023/08/17 09:52:22;;;;;;;3.95;1.58;;;;;;;19.27;67.50;102204.88;7394755;19;20014;-59
2023/08/17 09:54:52;;;;;;;3.88;1.55;;;;;;;19.42;67.28;102219.66;7395228;19;20017;-59
2023/08/17 09:57:21;;;;;;;4.00;1.60;;;;;;;19.60;67.07;102214.47;7393404;19;20018;-59
2023/08/17 09:59:51;;;;;;;2.05;1.05;;;;;;;19.62;67.03;102225.16;7395153;19;20253;-59
2023/08/17 10:02:23;;;;;;;2.58;1.30;;;;;;;19.56;67.58;102221.13;7393516;19;20483;-58
2023/08/17 10:04:53;;;;;;;3.17;1.42;;;;;;;19.63;67.93;102214.25;7394734;19;20491;-60
2023/08/17 10:07:24;;;;;;;3.45;1.23;;;;;;;19.68;68.17;102219.19;7392274;19;20018;-59
2023/08/17 10:10:02;;;;;;;3.80;1.73;;;;;;;19.58;67.73;102210.25;7395286;19;20014;-59
2023/08/17 10:12:36;;;;;;;2.67;1.40;;;;;;;19.52;68.06;102214.31;7391058;19;20015;-58
2023/08/17 10:15:08;;;;;;;3.55;1.48;;;;;;;19.45;67.90;102199.72;7394649;19;20014;-58
2023/08/17 10:17:43;;;;;;;3.60;1.20;;;;;;;19.54;67.61;102195.38;7393459;19;20014;-58
2023/08/17 10:20:12;;;;;;;3.67;1.27;;;;;;;19.49;67.79;102203.81;7392177;19;20026;-58
2023/08/17 10:22:51;;;;;;;3.55;1.27;;;;;;;19.57;67.41;102192.41;7392722;19;20014;-58
2023/08/17 10:25:20;;;;;;;1.95;1.23;;;;;;;19.51;67.44;102193.81;7394169;19;20022;-57
2023/08/17 10:27:52;;;;;;;2.30;1.27;;;;;;;19.58;66.96;102196.81;7390878;19;20378;-58
2023/08/17 10:30:25;;;;;;;3.13;1.60;;;;;;;19.67;66.57;102193.31;7393720;19;20025;-60
2023/08/17 10:32:53;;;;;;;3.85;1.40;;;;;;;19.75;66.18;102185.41;7391562;19;20026;-55
2023/08/17 10:35:21;;;;;;;3.03;1.30;;;;;;;19.89;66.03;102186.88;7392348;19;20017;-56
2023/08/17 10:37:49;;;;;;;2.83;1.48;;;;;;;20.05;65.65;102192.53;7393342;19;20018;-55
2023/08/17 10:40:16;;;;;;;2.50;1.10;;;;;;;20.24;65.17;102190.88;7393456;19;20014;-55
2023/08/17 10:42:46;;;;;;;3.20;1.20;;;;;;;20.38;64.88;102188.59;7391606;19;20043;-58
2023/08/17 10:45:30;;;;;;;2.50;1.25;;;;;;;20.47;64.32;102200.34;7392947;19;20034;-59
2023/08/17 10:48:08;;;;;;;4.40;1.42;;;;;;;20.21;65.13;102202.75;7391939;19;20014;-56
2023/08/17 10:50:37;;;;;;;2.65;1.30;;;;;;;19.99;66.19;102203.84;7392746;19;20060;-56
2023/08/17 10:53:10;;;;;;;;;;;;;;;19.71;66.00;102211.72;7394472;19;20094;-56
2023/08/17 10:55:40;;;;;;;2.15;1.15;;;;;;;19.74;66.78;102199.84;7391925;19;19930;-56
2023/08/17 10:58:08;;;;;;;2.78;1.30;;;;;;;19.83;66.56;102209.75;7391729;19;20014;-57
2023/08/17 11:00:43;;;;;;;1.92;1.13;;;;;;;19.90;66.41;102200.16;7392729;19;20015;-56
2023/08/17 11:03:20;;;;;;;3.17;1.30;;;;;;;19.96;66.34;102205.00;7391283;19;20349;-59
2023/08/17 11:05:52;;;;;;;2.65;1.42;;;;;;;19.84;66.06;102197.16;7390601;19;20014;-59
2023/08/17 11:08:42;;;;;;;4.35;1.42;;;;;;;19.81;65.93;102200.16;7391640;19;20014;-59
2023/08/17 11:11:12;;;;;;;3.72;1.23;;;;;;;19.78;66.30;102205.81;7390236;19;20491;-58
2023/08/17 11:13:44;;;;;;;3.97;1.20;;;;;;;19.85;66.20;102206.97;7390842;19;20014;-58
2023/08/17 11:16:14;;;;;;;3.60;1.30;;;;;;;19.84;66.15;102207.94;7389961;19;20085;-59
2023/08/17 11:18:46;;;;;;;3.50;1.65;;;;;;;19.81;66.40;102208.22;7393090;19;20029;-58
2023/08/17 11:21:14;;;;;;;2.33;1.27;;;;;;;19.82;nan;102207.22;7391976;19;21457;-58
2023/08/17 11:23:45;;;;;;;3.35;1.40;;;;;;;19.80;66.78;102207.34;7392271;19;20066;-57
2023/08/17 11:26:16;;;;;;;3.28;1.40;;;;;;;19.92;67.08;102210.81;7391011;19;20022;-57
2023/08/17 11:28:44;;;;;;;3.47;1.48;;;;;;;19.98;66.96;102212.91;7390920;19;20099;-59
2023/08/17 11:31:14;;;;;;;3.88;1.38;;;;;;;19.97;66.90;102208.53;7391488;19;20033;-58